createdAt,value
2018-12-05T00:01:57.331Z,3.20
2018-12-05T00:04:24.783Z,3.20
2018-12-05T00:06:52.240Z,3.20
2018-12-05T00:09:19.675Z,3.20
2018-12-05T00:11:47.146Z,3.20
2018-12-05T00:14:14.594Z,3.20
2018-12-05T00:16:42.049Z,3.10
2018-12-05T00:19:09.475Z,3.20
2018-12-05T00:21:36.934Z,3.10
2018-12-05T00:24:04.442Z,3.20
2018-12-05T00:26:31.924Z,3.20
2018-12-05T00:28:59.411Z,3.10
2018-12-05T00:31:26.862Z,3.10
2018-12-05T00:33:54.323Z,3.10
2018-12-05T00:36:21.785Z,3.10
2018-12-05T00:38:49.240Z,3.10
2018-12-05T00:41:16.678Z,3.10
2018-12-05T00:43:44.152Z,3.10
2018-12-05T00:46:11.583Z,3.10
2018-12-05T00:48:39.066Z,3.10
2018-12-05T00:51:06.524Z,3.10
2018-12-05T00:53:34.011Z,3.10
2018-12-05T00:56:01.498Z,3.10
2018-12-05T00:58:29.035Z,3.10
2018-12-05T01:00:56.562Z,3.10
2018-12-05T01:03:24.031Z,3.10
2018-12-05T01:05:51.531Z,3.10
2018-12-05T01:08:18.969Z,3.10
2018-12-05T01:10:46.547Z,3.10
2018-12-05T01:13:13.983Z,3.00
2018-12-05T01:15:41.443Z,3.10
2018-12-05T01:18:08.877Z,3.00
2018-12-05T01:20:36.400Z,3.00
2018-12-05T01:23:03.879Z,2.90
2018-12-05T01:25:31.546Z,2.90
2018-12-05T01:27:58.999Z,2.80
2018-12-05T01:30:26.439Z,2.80
2018-12-05T01:32:53.894Z,2.80
2018-12-05T01:35:21.327Z,2.70
2018-12-05T01:37:48.881Z,2.70
2018-12-05T01:40:16.322Z,2.70
2018-12-05T01:42:44.010Z,2.60
2018-12-05T01:45:11.531Z,2.60
2018-12-05T01:47:39.005Z,2.60
2018-12-05T01:50:06.596Z,2.60
2018-12-05T01:52:34.020Z,2.50
2018-12-05T01:55:01.479Z,2.50
2018-12-05T01:57:28.940Z,2.50
2018-12-05T01:59:56.368Z,2.40
2018-12-05T02:02:23.814Z,2.40
2018-12-05T02:04:51.375Z,2.30
2018-12-05T02:07:18.809Z,2.30
2018-12-05T02:09:46.405Z,2.30
2018-12-05T02:12:13.953Z,2.30
2018-12-05T02:14:41.406Z,2.20
2018-12-05T02:17:08.867Z,2.20
2018-12-05T02:19:36.299Z,2.10
2018-12-05T02:22:03.805Z,2.10
2018-12-05T02:24:31.262Z,2.00
2018-12-05T02:26:58.716Z,2.00
2018-12-05T02:29:28.132Z,2.00
2018-12-05T02:31:55.579Z,1.90
2018-12-05T02:34:23.139Z,2.00
2018-12-05T02:36:51.005Z,1.90
2018-12-05T02:39:18.577Z,1.90
2018-12-05T02:41:46.116Z,1.90
2018-12-05T02:44:13.580Z,1.90
2018-12-05T02:46:41.127Z,1.90
2018-12-05T02:49:08.578Z,1.90
2018-12-05T02:51:36.079Z,1.90
2018-12-05T02:54:03.639Z,1.80
2018-12-05T02:56:31.155Z,1.80
2018-12-05T02:58:58.619Z,1.80
2018-12-05T03:01:26.108Z,1.70
2018-12-05T03:03:53.563Z,1.70
2018-12-05T03:06:21.010Z,1.60
2018-12-05T03:08:48.447Z,1.60
2018-12-05T03:11:15.919Z,1.60
2018-12-05T03:13:43.366Z,1.50
2018-12-05T03:16:10.824Z,1.50
2018-12-05T03:18:38.311Z,1.50
2018-12-05T03:21:05.748Z,1.40
2018-12-05T03:23:33.215Z,1.40
2018-12-05T03:26:00.694Z,1.40
2018-12-05T03:28:28.175Z,1.40
2018-12-05T03:30:55.671Z,1.30
2018-12-05T03:33:23.153Z,1.30
2018-12-05T03:35:50.623Z,1.30
2018-12-05T03:38:18.069Z,1.20
2018-12-05T03:40:45.538Z,1.20
2018-12-05T03:43:13.014Z,1.20
2018-12-05T03:45:40.505Z,1.20
2018-12-05T03:48:07.991Z,1.20
2018-12-05T03:50:35.474Z,1.10
2018-12-05T03:53:03.009Z,1.10
2018-12-05T03:55:30.475Z,1.10
2018-12-05T03:57:57.958Z,1.10
2018-12-05T04:00:25.410Z,1.00
2018-12-05T04:02:52.884Z,1.00
2018-12-05T04:05:20.344Z,1.00
2018-12-05T04:07:47.841Z,1.00
2018-12-05T04:10:15.295Z,1.00
2018-12-05T04:12:42.746Z,0.90
2018-12-05T04:15:10.222Z,0.90
2018-12-05T04:17:37.681Z,0.90
2018-12-05T04:20:05.291Z,0.90
2018-12-05T04:22:32.776Z,0.90
2018-12-05T04:25:00.265Z,0.90
2018-12-05T04:27:27.711Z,0.90
2018-12-05T04:29:55.166Z,0.90
2018-12-05T04:32:22.645Z,1.00
2018-12-05T04:34:50.204Z,1.00
2018-12-05T04:37:17.691Z,0.90
2018-12-05T04:39:45.160Z,0.90
2018-12-05T04:42:12.603Z,0.90
2018-12-05T04:44:40.148Z,0.90
2018-12-05T04:47:07.611Z,0.80
2018-12-05T04:49:35.072Z,0.80
2018-12-05T04:52:02.546Z,0.80
2018-12-05T04:54:29.991Z,0.80
2018-12-05T04:56:57.458Z,0.80
2018-12-05T04:59:24.904Z,0.70
2018-12-05T05:01:52.411Z,0.70
2018-12-05T05:04:19.880Z,0.70
2018-12-05T05:06:47.382Z,0.60
2018-12-05T05:09:14.923Z,0.60
2018-12-05T05:11:42.498Z,0.60
2018-12-05T05:14:09.988Z,0.50
2018-12-05T05:16:37.452Z,0.50
2018-12-05T05:19:04.985Z,0.50
2018-12-05T05:21:32.475Z,0.50
2018-12-05T05:24:00.031Z,0.50
2018-12-05T05:26:27.527Z,0.40
2018-12-05T05:28:54.976Z,0.40
2018-12-05T05:31:23.816Z,0.40
2018-12-05T05:33:51.518Z,0.40
2018-12-05T05:36:19.035Z,0.40
2018-12-05T05:38:46.518Z,0.30
2018-12-05T05:41:14.239Z,0.30
2018-12-05T05:43:41.734Z,0.30
2018-12-05T05:46:09.630Z,0.30
2018-12-05T05:48:37.111Z,0.30
2018-12-05T05:51:04.643Z,0.30
2018-12-05T05:53:32.090Z,0.30
2018-12-05T05:55:59.636Z,0.30
2018-12-05T05:58:27.070Z,0.30
2018-12-05T06:00:54.527Z,0.30
2018-12-05T06:03:22.019Z,0.20
2018-12-05T06:05:49.472Z,0.30
2018-12-05T06:08:16.943Z,0.20
2018-12-05T06:10:44.407Z,0.20
2018-12-05T06:13:11.883Z,0.20
2018-12-05T06:15:39.358Z,0.20
2018-12-05T06:18:06.851Z,0.20
2018-12-05T06:20:34.342Z,0.20
2018-12-05T06:23:01.873Z,0.20
2018-12-05T06:25:29.338Z,0.20
2018-12-05T06:27:56.804Z,0.20
2018-12-05T06:30:24.305Z,0.10
2018-12-05T06:32:51.759Z,0.20
2018-12-05T06:35:19.216Z,0.10
2018-12-05T06:37:46.696Z,0.10
2018-12-05T06:40:14.140Z,0.00
2018-12-05T06:42:41.700Z,0.00
2018-12-05T06:45:09.147Z,0.00
2018-12-05T06:47:36.628Z,-0.10
2018-12-05T06:50:04.544Z,-0.10
2018-12-05T06:52:32.015Z,-0.10
2018-12-05T06:54:59.495Z,-0.10
2018-12-05T06:57:26.942Z,-0.20
2018-12-05T06:59:54.432Z,-0.20
2018-12-05T07:02:21.887Z,-0.20
2018-12-05T07:04:49.331Z,-0.20
2018-12-05T07:07:17.651Z,-0.20
2018-12-05T07:09:45.359Z,-0.20
2018-12-05T07:12:12.839Z,-0.20
2018-12-05T07:14:40.297Z,-0.20
2018-12-05T07:17:07.759Z,-0.20
2018-12-05T07:19:35.215Z,-0.30
2018-12-05T07:22:02.707Z,-0.30
2018-12-05T07:24:30.171Z,-0.30
2018-12-05T07:26:57.642Z,-0.30
2018-12-05T07:29:25.099Z,-0.30
2018-12-05T07:31:52.578Z,-0.30
2018-12-05T07:34:20.961Z,-0.30
2018-12-05T07:36:48.439Z,-0.30
2018-12-05T07:39:15.883Z,-0.30
2018-12-05T07:41:43.339Z,-0.30
2018-12-05T07:44:10.819Z,-0.30
2018-12-05T07:46:38.277Z,-0.30
2018-12-05T07:49:05.883Z,-0.30
2018-12-05T07:51:33.343Z,-0.30
2018-12-05T07:54:00.838Z,-0.30
2018-12-05T07:56:28.308Z,-0.20
2018-12-05T07:58:55.796Z,-0.20
2018-12-05T08:01:23.364Z,-0.20
2018-12-05T08:03:50.846Z,-0.10
2018-12-05T08:06:18.382Z,-0.10
2018-12-05T08:08:45.875Z,-0.10
2018-12-05T08:11:13.363Z,0.00
2018-12-05T08:13:40.807Z,0.00
2018-12-05T08:16:08.286Z,0.00
2018-12-05T08:18:35.756Z,0.10
2018-12-05T08:21:03.229Z,0.10
2018-12-05T08:23:30.747Z,0.10
2018-12-05T08:25:58.258Z,0.10
2018-12-05T08:28:25.735Z,0.20
2018-12-05T08:30:53.206Z,0.20
2018-12-05T08:33:20.671Z,0.30
2018-12-05T08:35:48.140Z,0.30
2018-12-05T08:38:15.595Z,0.30
2018-12-05T08:40:43.077Z,0.30
2018-12-05T08:43:10.521Z,0.30
2018-12-05T08:45:37.999Z,0.30
2018-12-05T08:48:05.467Z,0.40
2018-12-05T08:50:32.977Z,0.40
2018-12-05T08:53:00.498Z,0.40
2018-12-05T08:55:27.971Z,0.50
2018-12-05T08:57:55.427Z,0.50
2018-12-05T09:00:22.978Z,0.50
2018-12-05T09:02:50.429Z,0.60
2018-12-05T09:05:17.895Z,0.60
2018-12-05T09:07:45.380Z,0.60
2018-12-05T09:10:12.922Z,0.70
2018-12-05T09:12:40.431Z,0.70
2018-12-05T09:15:08.043Z,0.70
2018-12-05T09:17:35.499Z,0.70
2018-12-05T09:20:03.126Z,0.80
2018-12-05T09:22:30.618Z,0.80
2018-12-05T09:24:58.087Z,0.90
2018-12-05T09:27:25.536Z,0.90
2018-12-05T09:29:53.087Z,0.90
2018-12-05T09:32:20.534Z,1.00
2018-12-05T09:34:47.991Z,1.00
2018-12-05T09:37:15.517Z,1.10
2018-12-05T09:39:42.969Z,1.10
2018-12-05T09:42:10.440Z,1.20
2018-12-05T09:44:37.930Z,1.20
2018-12-05T09:47:05.396Z,1.30
2018-12-05T09:49:32.935Z,1.30
2018-12-05T09:52:00.444Z,1.40
2018-12-05T09:54:27.967Z,1.40
2018-12-05T09:56:55.435Z,1.40
2018-12-05T09:59:22.911Z,1.50
2018-12-05T10:01:50.401Z,1.60
2018-12-05T10:04:17.857Z,1.60
2018-12-05T10:06:45.339Z,1.70
2018-12-05T10:09:12.815Z,1.80
2018-12-05T10:11:40.294Z,1.80
2018-12-05T10:14:07.779Z,1.90
2018-12-05T10:16:35.221Z,2.00
2018-12-05T10:19:02.675Z,2.10
2018-12-05T10:21:30.146Z,2.20
2018-12-05T10:23:57.642Z,2.30
2018-12-05T10:26:25.106Z,2.30
2018-12-05T10:28:52.621Z,2.40
2018-12-05T10:31:20.094Z,2.50
2018-12-05T10:33:47.547Z,2.60
2018-12-05T10:38:47.990Z,2.80
2018-12-05T10:41:15.446Z,2.80
2018-12-05T10:43:42.990Z,2.90
2018-12-05T10:46:10.431Z,2.90
2018-12-05T10:48:37.887Z,3.00
2018-12-05T10:51:05.363Z,3.10
2018-12-05T10:53:32.849Z,3.20
2018-12-05T10:56:00.321Z,3.20
2018-12-05T10:58:27.771Z,3.30
2018-12-05T11:01:00.779Z,3.40
2018-12-05T11:03:34.508Z,3.50
2018-12-05T11:06:08.299Z,3.50
2018-12-05T11:08:41.418Z,3.60
2018-12-05T11:11:14.668Z,3.60
2018-12-05T11:13:47.827Z,3.70
2018-12-05T11:19:21.812Z,3.80
2018-12-05T11:21:55.169Z,3.90
2018-12-05T11:24:28.395Z,4.00
2018-12-05T11:26:55.935Z,4.00
2018-12-05T11:29:23.414Z,4.10
2018-12-05T11:31:51.212Z,4.10
2018-12-05T11:34:18.664Z,4.10
2018-12-05T11:36:46.143Z,4.20
2018-12-05T11:39:13.592Z,4.20
2018-12-05T11:41:41.074Z,4.20
2018-12-05T11:44:08.532Z,4.30
2018-12-05T11:46:36.006Z,4.30
2018-12-05T11:49:03.583Z,4.30
2018-12-05T11:51:31.083Z,4.40
2018-12-05T11:53:58.564Z,4.40
2018-12-05T11:56:26.020Z,4.30
2018-12-05T11:58:53.515Z,4.40
2018-12-05T12:01:20.990Z,4.40
2018-12-05T12:03:48.435Z,4.40
2018-12-05T12:06:15.911Z,4.40
2018-12-05T12:08:43.351Z,4.40
2018-12-05T12:11:10.918Z,4.40
2018-12-05T12:13:38.414Z,4.40
2018-12-05T12:16:05.951Z,4.40
2018-12-05T12:18:33.490Z,4.40
2018-12-05T12:21:00.961Z,4.40
2018-12-05T12:23:28.416Z,4.40
2018-12-05T12:25:55.893Z,4.30
2018-12-05T12:28:23.363Z,4.40
2018-12-05T12:30:50.826Z,4.30
2018-12-05T12:33:18.311Z,4.30
2018-12-05T12:35:45.858Z,4.30
2018-12-05T12:38:13.334Z,4.30
2018-12-05T12:40:40.821Z,4.30
2018-12-05T12:43:08.295Z,4.40
2018-12-05T12:45:35.783Z,4.30
2018-12-05T12:48:03.264Z,4.30
2018-12-05T12:50:30.738Z,4.30
2018-12-05T12:52:58.208Z,4.30
2018-12-05T12:55:25.725Z,4.30
2018-12-05T12:57:53.222Z,4.30
2018-12-05T13:00:20.699Z,4.30
2018-12-05T13:02:48.168Z,4.30
2018-12-05T13:05:15.623Z,4.30
2018-12-05T13:07:43.100Z,4.30
2018-12-05T13:10:10.563Z,4.40
2018-12-05T13:12:38.029Z,4.50
2018-12-05T13:15:05.557Z,4.60
2018-12-05T13:17:33.035Z,4.70
2018-12-05T13:20:00.493Z,4.80
2018-12-05T13:22:27.983Z,4.90
2018-12-05T13:24:55.451Z,4.90
2018-12-05T13:27:23.177Z,4.90
2018-12-05T13:29:50.639Z,4.90
2018-12-05T13:32:18.110Z,4.80
2018-12-05T13:34:45.589Z,4.80
2018-12-05T13:37:13.047Z,4.70
2018-12-05T13:39:40.502Z,4.60
2018-12-05T13:42:07.987Z,4.60
2018-12-05T13:44:35.455Z,4.50
2018-12-05T13:47:02.987Z,4.40
2018-12-05T13:49:30.515Z,4.30
2018-12-05T13:51:57.999Z,4.30
2018-12-05T13:54:25.471Z,4.20
2018-12-05T13:56:52.955Z,4.20
2018-12-05T13:59:20.406Z,4.10
2018-12-05T14:01:47.887Z,4.00
2018-12-05T14:04:15.362Z,3.90
2018-12-05T14:06:42.852Z,3.80
2018-12-05T14:09:10.334Z,3.80
2018-12-05T14:11:37.843Z,3.70
2018-12-05T14:14:05.490Z,3.70
2018-12-05T14:16:33.003Z,3.60
2018-12-05T14:19:00.531Z,3.60
2018-12-05T14:21:28.015Z,3.50
2018-12-05T14:23:55.495Z,3.50
2018-12-05T14:26:22.936Z,3.40
2018-12-05T14:28:50.391Z,3.40
2018-12-05T14:31:17.883Z,3.30
2018-12-05T14:33:45.338Z,3.20
2018-12-05T14:36:12.848Z,3.20
2018-12-05T14:38:40.313Z,3.10
2018-12-05T14:41:07.813Z,3.00
2018-12-05T14:43:35.286Z,3.00
2018-12-05T14:46:02.766Z,2.90
2018-12-05T14:48:30.235Z,2.80
2018-12-05T14:50:57.730Z,2.80
2018-12-05T14:53:25.195Z,2.70
2018-12-05T14:55:52.654Z,2.70
2018-12-05T14:58:20.138Z,2.60
2018-12-05T15:00:47.651Z,2.60
2018-12-05T15:03:15.099Z,2.50
2018-12-05T15:05:42.575Z,2.50
2018-12-05T15:08:10.098Z,2.40
2018-12-05T15:10:37.561Z,2.40
2018-12-05T15:13:05.039Z,2.30
2018-12-05T15:15:32.496Z,2.20
2018-12-05T15:17:59.975Z,2.20
2018-12-05T15:20:27.643Z,2.20
2018-12-05T15:22:55.204Z,2.20
2018-12-05T15:25:22.728Z,2.10
2018-12-05T15:27:50.229Z,2.10
2018-12-05T15:30:18.071Z,2.10
2018-12-05T15:32:45.531Z,2.10
2018-12-05T15:35:13.013Z,2.00
2018-12-05T15:37:40.567Z,2.00
2018-12-05T15:40:08.107Z,2.00
2018-12-05T15:42:35.848Z,1.90
2018-12-05T15:45:04.482Z,1.90
2018-12-05T15:47:32.180Z,1.90
2018-12-05T15:49:59.712Z,1.90
2018-12-05T15:52:27.223Z,1.80
2018-12-05T15:54:54.725Z,1.80
2018-12-05T15:57:22.179Z,1.80
2018-12-05T15:59:49.622Z,1.80
2018-12-05T16:02:17.175Z,1.80
2018-12-05T16:04:44.642Z,1.80
2018-12-05T16:07:12.113Z,1.70
2018-12-05T16:09:39.559Z,1.70
2018-12-05T16:12:07.035Z,1.70
2018-12-05T16:14:34.562Z,1.70
2018-12-05T16:17:02.026Z,1.60
2018-12-05T16:19:29.681Z,1.60
2018-12-05T16:21:57.114Z,1.60
2018-12-05T16:24:24.592Z,1.60
2018-12-05T16:26:52.063Z,1.60
2018-12-05T16:29:19.543Z,1.60
2018-12-05T16:31:47.005Z,1.50
2018-12-05T16:34:14.455Z,1.50
2018-12-05T16:36:41.932Z,1.50
2018-12-05T16:39:09.455Z,1.50
2018-12-05T16:41:36.931Z,1.50
2018-12-05T16:44:04.384Z,1.50
2018-12-05T16:46:31.879Z,1.50
2018-12-05T16:48:59.366Z,1.50
2018-12-05T16:51:26.923Z,1.50
2018-12-05T16:53:54.400Z,1.50
2018-12-05T16:56:21.899Z,1.50
2018-12-05T16:58:49.366Z,1.50
2018-12-05T17:01:16.870Z,1.60
2018-12-05T17:03:44.542Z,1.60
2018-12-05T17:06:12.067Z,1.60
2018-12-05T17:08:39.579Z,1.60
2018-12-05T17:11:07.046Z,1.60
2018-12-05T17:13:36.467Z,1.70
2018-12-05T17:16:04.065Z,1.70
2018-12-05T17:18:31.583Z,1.80
2018-12-05T17:20:59.053Z,1.80
2018-12-05T17:23:26.523Z,1.80
2018-12-05T17:25:53.979Z,1.90
2018-12-05T17:28:21.463Z,1.90
2018-12-05T17:30:48.935Z,2.00
2018-12-05T17:33:16.379Z,2.00
2018-12-05T17:35:43.849Z,2.10
2018-12-05T17:38:11.304Z,2.10
2018-12-05T17:40:38.849Z,2.10
2018-12-05T17:43:06.323Z,2.10
2018-12-05T17:45:33.785Z,2.20
2018-12-05T17:48:01.247Z,2.20
2018-12-05T17:50:28.700Z,2.20
2018-12-05T17:52:56.162Z,2.20
2018-12-05T17:55:23.599Z,2.20
2018-12-05T17:57:51.068Z,2.30
2018-12-05T18:00:18.694Z,2.30
2018-12-05T18:02:46.136Z,2.30
2018-12-05T18:05:13.931Z,2.30
2018-12-05T18:07:41.466Z,2.40
2018-12-05T18:10:09.139Z,2.40
2018-12-05T18:12:36.604Z,2.40
2018-12-05T18:15:04.680Z,2.40
2018-12-05T18:17:32.147Z,2.50
2018-12-05T18:19:59.679Z,2.50
2018-12-05T18:22:27.254Z,2.50
2018-12-05T18:24:54.688Z,2.50
2018-12-05T18:27:22.162Z,2.50
2018-12-05T18:29:49.603Z,2.60
2018-12-05T18:32:17.126Z,2.60
2018-12-05T18:34:44.584Z,2.60
2018-12-05T18:37:12.115Z,2.60
2018-12-05T18:39:40.438Z,2.60
2018-12-05T18:42:08.179Z,2.70
2018-12-05T18:44:35.622Z,2.70
2018-12-05T18:47:03.101Z,2.70
2018-12-05T18:49:30.608Z,2.80
2018-12-05T18:51:58.050Z,2.80
2018-12-05T18:54:25.524Z,2.80
2018-12-05T18:56:53.000Z,2.90
2018-12-05T18:59:20.512Z,2.90
2018-12-05T19:01:48.032Z,2.90
2018-12-05T19:04:15.591Z,2.90
2018-12-05T19:06:43.082Z,2.90
2018-12-05T19:09:10.519Z,2.90
2018-12-05T19:11:37.991Z,2.90
2018-12-05T19:14:11.262Z,2.90
2018-12-05T19:16:38.730Z,3.00
2018-12-05T19:19:06.262Z,2.90
2018-12-05T19:21:33.735Z,2.90
2018-12-05T19:24:01.179Z,3.00
2018-12-05T19:26:28.656Z,3.00
2018-12-05T19:28:56.132Z,3.00
2018-12-05T19:31:23.600Z,3.00
2018-12-05T19:33:51.072Z,3.00
2018-12-05T19:36:18.523Z,3.00
2018-12-05T19:38:45.991Z,3.00
2018-12-05T19:41:13.446Z,3.00
2018-12-05T19:43:40.928Z,3.00
2018-12-05T19:46:08.423Z,3.00
2018-12-05T19:48:35.899Z,3.00
2018-12-05T19:51:03.459Z,3.00
2018-12-05T19:53:30.927Z,3.00
2018-12-05T19:55:58.375Z,3.10
2018-12-05T19:58:25.843Z,3.10
2018-12-05T20:00:53.303Z,3.10
2018-12-05T20:03:20.844Z,3.10
2018-12-05T20:05:48.367Z,3.10
2018-12-05T20:08:15.919Z,3.20
2018-12-05T20:10:43.379Z,3.20
2018-12-05T20:13:10.859Z,3.20
2018-12-05T20:15:38.382Z,3.20
2018-12-05T20:18:05.822Z,3.20
2018-12-05T20:20:33.301Z,3.20
2018-12-05T20:23:00.770Z,3.20
2018-12-05T20:25:28.215Z,3.20
2018-12-05T20:27:55.711Z,3.20
2018-12-05T20:30:23.182Z,3.20
2018-12-05T20:32:50.653Z,3.20
2018-12-05T20:35:18.188Z,3.20
2018-12-05T20:37:45.670Z,3.20
2018-12-05T20:40:13.154Z,3.20
2018-12-05T20:42:40.623Z,3.20
2018-12-05T20:45:08.235Z,3.20
2018-12-05T20:47:35.690Z,3.20
2018-12-05T20:50:04.904Z,3.20
2018-12-05T20:52:32.464Z,3.20
2018-12-05T20:54:59.917Z,3.20
2018-12-05T20:57:27.526Z,3.20
2018-12-05T20:59:55.047Z,3.20
2018-12-05T21:02:22.542Z,3.20
2018-12-05T21:04:50.001Z,3.20
2018-12-05T21:07:17.449Z,3.20
2018-12-05T21:09:44.944Z,3.30
2018-12-05T21:12:12.393Z,3.20
2018-12-05T21:14:39.921Z,3.30
2018-12-05T21:17:07.416Z,3.30
2018-12-05T21:19:34.891Z,3.30
2018-12-05T21:22:02.335Z,3.30
2018-12-05T21:24:29.812Z,3.30
2018-12-05T21:26:57.276Z,3.30
2018-12-05T21:29:24.724Z,3.30
2018-12-05T21:31:52.179Z,3.30
2018-12-05T21:34:19.646Z,3.30
2018-12-05T21:36:47.118Z,3.40
2018-12-05T21:39:14.559Z,3.40
2018-12-05T21:41:42.027Z,3.40
2018-12-05T21:44:09.483Z,3.40
2018-12-05T21:46:36.951Z,3.40
2018-12-05T21:49:04.431Z,3.40
2018-12-05T21:51:31.872Z,3.40
2018-12-05T21:53:59.404Z,3.40
2018-12-05T21:56:26.863Z,3.40
2018-12-05T21:58:54.322Z,3.40
2018-12-05T22:01:21.779Z,3.40
2018-12-05T22:03:49.242Z,3.50
2018-12-05T22:06:16.692Z,3.50
2018-12-05T22:08:44.160Z,3.50
2018-12-05T22:11:11.665Z,3.50
2018-12-05T22:13:39.321Z,3.60
2018-12-05T22:16:06.804Z,3.60
2018-12-05T22:18:34.393Z,3.60
2018-12-05T22:21:01.935Z,3.60
2018-12-05T22:23:29.493Z,3.60
2018-12-05T22:25:56.964Z,3.70
2018-12-05T22:28:24.419Z,3.70
2018-12-05T22:30:51.923Z,3.70
2018-12-05T22:33:19.353Z,3.70
2018-12-05T22:35:47.001Z,3.70
2018-12-05T22:38:14.451Z,3.70
2018-12-05T22:40:41.933Z,3.70
2018-12-05T22:43:09.470Z,3.70
2018-12-05T22:45:36.914Z,3.70
2018-12-05T22:48:04.378Z,3.70
2018-12-05T22:50:31.822Z,3.70
2018-12-05T22:52:59.295Z,3.70
2018-12-05T22:55:26.750Z,3.70
2018-12-05T22:57:54.214Z,3.70
2018-12-05T23:00:24.491Z,3.70
2018-12-05T23:02:52.006Z,3.70
2018-12-05T23:05:19.461Z,3.70
2018-12-05T23:07:46.946Z,3.70
2018-12-05T23:10:14.472Z,3.70
2018-12-05T23:12:41.977Z,3.70
2018-12-05T23:15:09.503Z,3.70
2018-12-05T23:17:36.951Z,3.70
2018-12-05T23:20:05.035Z,3.70
2018-12-05T23:22:32.500Z,3.70
2018-12-05T23:24:59.951Z,3.70
2018-12-05T23:27:27.432Z,3.80
2018-12-05T23:29:54.870Z,3.70
2018-12-05T23:32:22.315Z,3.70
2018-12-05T23:34:49.782Z,3.80
2018-12-05T23:37:17.285Z,3.70
2018-12-05T23:39:44.736Z,3.80
2018-12-05T23:42:12.204Z,3.70
2018-12-05T23:44:39.699Z,3.80
2018-12-05T23:47:07.134Z,3.70
2018-12-05T23:49:34.608Z,3.70
2018-12-05T23:52:02.093Z,3.70
2018-12-05T23:54:29.538Z,3.70
2018-12-05T23:56:57.011Z,3.70
2018-12-05T23:59:24.455Z,3.70
